Time;durP1;ratioP1;P1;durP2;ratioP2;P2;SDS_P1;SDS_P2;PMS_P1;PMS_P2;Temp;Humidity;BMP_temperature;BMP_pressure;BME280_temperature;BME280_humidity;BME280_pressure;Samples;Min_cycle;Max_cycle;Signal;HPM_P1;HPM_P2
2023/04/02 00:01:44;;;;;;;11.37;7.40;;;9.10;99.90;;;;;;6089799;23;20432;-72
2023/04/02 00:04:20;;;;;;;10.43;6.70;;;9.10;99.90;;;;;;6089177;23;20411;-71
2023/04/02 00:07:09;;;;;;;10.77;6.73;;;9.10;99.90;;;;;;6091871;23;20398;-72
2023/04/02 00:09:36;;;;;;;12.20;5.30;;;9.10;99.90;;;;;;6090748;23;20428;-72
2023/04/02 00:12:16;;;;;;;10.30;5.57;;;9.20;99.90;;;;;;6092103;23;20427;-72
2023/04/02 00:14:48;;;;;;;15.63;7.70;;;9.10;99.90;;;;;;6008753;23;20883;-72
2023/04/02 00:17:15;;;;;;;11.90;5.70;;;9.10;99.90;;;;;;6064140;23;20418;-71
2023/04/02 00:20:07;;;;;;;16.67;7.50;;;9.10;99.90;;;;;;6033335;23;20398;-71
2023/04/02 00:22:33;;;;;;;9.00;5.27;;;9.20;99.90;;;;;;6031133;23;20402;-73
2023/04/02 00:25:11;;;;;;;11.50;6.50;;;9.20;99.90;;;;;;6065371;23;20390;-68
2023/04/02 00:27:38;;;;;;;12.43;6.20;;;9.10;99.90;;;;;;6009219;23;20164;-72
2023/04/02 00:30:05;;;;;;;12.23;6.87;;;9.10;99.90;;;;;;6040208;23;20799;-71
2023/04/02 00:32:33;;;;;;;10.60;5.67;;;9.10;99.90;;;;;;6028994;23;20511;-71
2023/04/02 00:35:00;;;;;;;10.50;5.00;;;9.10;99.90;;;;;;6062815;23;20389;-70
2023/04/02 00:37:37;;;;;;;12.17;5.33;;;9.10;99.90;;;;;;6051257;23;20409;-69
2023/04/02 00:40:15;;;;;;;7.30;3.70;;;9.10;99.90;;;;;;6006915;24;20428;-71
2023/04/02 00:42:42;;;;;;;8.00;3.80;;;9.10;99.90;;;;;;6003743;24;20403;-72
2023/04/02 00:45:29;;;;;;;7.53;3.30;;;9.10;99.90;;;;;;6020269;23;20474;-71
2023/04/02 00:48:30;;;;;;;4.97;3.00;;;9.10;99.90;;;;;;6052694;23;20695;-72
2023/04/02 00:51:00;;;;;;;5.70;2.70;;;9.20;99.90;;;;;;6063369;23;20450;-70
2023/04/02 00:53:27;;;;;;;6.17;2.77;;;9.20;99.90;;;;;;6023834;23;20423;-72
2023/04/02 00:55:57;;;;;;;22.07;9.60;;;9.10;99.90;;;;;;6031545;23;20451;-70
2023/04/02 00:58:35;;;;;;;23.10;12.37;;;9.10;99.90;;;;;;6008081;23;20472;-72
2023/04/02 01:01:01;;;;;;;24.17;13.60;;;9.10;99.90;;;;;;6030631;23;20886;-69
2023/04/02 01:03:33;;;;;;;16.67;9.13;;;9.00;99.90;;;;;;6032683;23;20376;-73
2023/04/02 01:06:10;;;;;;;13.27;8.13;;;8.80;99.90;;;;;;6000806;23;20775;-71
2023/04/02 01:09:18;;;;;;;9.93;6.23;;;8.60;99.90;;;;;;6022720;23;20371;-70
2023/04/02 01:11:49;;;;;;;10.73;8.03;;;8.50;99.90;;;;;;5994472;24;20439;-69
2023/04/02 01:14:34;;;;;;;9.20;6.47;;;8.30;99.90;;;;;;5993484;24;20385;-71
2023/04/02 01:17:18;;;;;;;8.00;5.37;;;8.20;99.90;;;;;;6019479;23;20480;-69
2023/04/02 01:20:29;;;;;;;10.23;7.27;;;8.10;99.90;;;;;;6059042;23;20378;-71
2023/04/02 01:23:04;;;;;;;11.67;7.33;;;8.00;99.90;;;;;;6026559;23;20417;-72
2023/04/02 01:26:07;;;;;;;13.00;7.30;;;8.00;99.90;;;;;;6028530;23;20386;-71
2023/04/02 01:29:04;;;;;;;7.10;5.50;;;7.90;99.90;;;;;;6026538;23;20474;-72
2023/04/02 01:31:33;;;;;;;12.63;8.30;;;7.90;99.90;;;;;;6028671;23;20421;-71
2023/04/02 01:34:00;;;;;;;15.23;7.80;;;7.80;99.90;;;;;;6025214;23;20386;-68
2023/04/02 01:36:52;;;;;;;11.20;7.43;;;7.80;99.90;;;;;;6056020;23;20470;-72
2023/04/02 01:39:38;;;;;;;9.80;7.40;;;7.70;99.90;;;;;;6028275;23;20632;-72
2023/04/02 01:42:20;;;;;;;12.63;8.17;;;7.70;99.90;;;;;;6026081;23;20457;-71
2023/04/02 01:44:52;;;;;;;12.97;9.30;;;7.60;99.90;;;;;;6063585;23;20374;-71
2023/04/02 01:47:27;;;;;;;20.63;11.67;;;7.60;99.90;;;;;;6061100;23;20839;-72
2023/04/02 01:50:04;;;;;;;15.90;8.30;;;7.60;99.90;;;;;;6032500;23;20830;-68
2023/04/02 01:52:41;;;;;;;17.30;11.67;;;7.50;99.90;;;;;;6104395;23;20428;-69
2023/04/02 01:55:11;;;;;;;11.27;6.87;;;7.50;99.90;;;;;;6109835;23;20392;-70
2023/04/02 01:57:40;;;;;;;9.47;5.97;;;7.40;99.90;;;;;;6109989;23;20369;-72
2023/04/02 02:00:12;;;;;;;7.87;5.27;;;7.40;99.90;;;;;;6120313;23;20364;-71
2023/04/02 02:02:39;;;;;;;8.17;6.10;;;7.40;99.90;;;;;;6109452;23;20487;-71
2023/04/02 02:05:12;;;;;;;7.70;5.87;;;7.30;99.90;;;;;;6107996;23;20372;-71
2023/04/02 02:07:39;;;;;;;6.13;4.90;;;7.30;99.90;;;;;;6108417;23;20811;-70
2023/04/02 02:10:07;;;;;;;6.63;4.43;;;7.20;99.90;;;;;;6109897;23;20652;-72
2023/04/02 02:12:32;;;;;;;7.83;5.97;;;7.20;99.90;;;;;;6106959;23;20462;-70
2023/04/02 02:14:58;;;;;;;11.10;6.63;;;7.20;99.90;;;;;;6108550;23;20416;-70
2023/04/02 02:17:33;;;;;;;6.60;5.33;;;7.20;99.90;;;;;;6120533;23;20145;-70
2023/04/02 02:20:00;;;;;;;6.27;4.70;;;7.20;99.90;;;;;;6108325;23;20183;-70
2023/04/02 02:22:36;;;;;;;7.60;4.47;;;7.10;99.90;;;;;;6118252;23;20483;-69
2023/04/02 02:25:06;;;;;;;7.43;5.27;;;7.10;99.90;;;;;;6119710;23;20817;-70
2023/04/02 02:27:48;;;;;;;7.00;6.30;;;7.10;99.90;;;;;;6117159;23;20415;-69
2023/04/02 02:30:16;;;;;;;11.80;7.23;;;7.10;99.90;;;;;;6107644;23;20396;-71
2023/04/02 02:33:19;;;;;;;7.00;5.17;;;7.00;99.90;;;;;;6116792;23;20404;-70
2023/04/02 02:35:56;;;;;;;6.90;3.97;;;7.00;99.90;;;;;;6086766;23;20721;-71
2023/04/02 02:38:33;;;;;;;3.93;3.40;;;7.00;99.90;;;;;;6104909;23;20397;-71
2023/04/02 02:41:19;;;;;;;5.50;4.07;;;7.00;99.90;;;;;;6085091;23;20424;-72
2023/04/02 02:44:04;;;;;;;7.53;4.67;;;7.00;99.90;;;;;;6107645;23;20699;-69
2023/04/02 02:46:32;;;;;;;6.47;4.97;;;6.90;99.90;;;;;;6107257;23;20388;-71
2023/04/02 02:49:00;;;;;;;7.20;4.63;;;6.90;99.90;;;;;;6086031;23;20391;-69
2023/04/02 02:51:41;;;;;;;5.70;4.47;;;6.90;99.90;;;;;;6110890;23;20412;-70
2023/04/02 02:54:10;;;;;;;6.47;4.40;;;6.90;99.90;;;;;;6033773;23;20433;-70
2023/04/02 02:56:41;;;;;;;7.20;4.87;;;6.90;99.90;;;;;;6078930;23;20405;-67
2023/04/02 02:59:11;;;;;;;7.90;6.00;;;6.80;99.90;;;;;;6077515;23;20394;-69
2023/04/02 03:01:41;;;;;;;10.87;4.47;;;6.80;99.90;;;;;;6028399;23;20409;-68
2023/04/02 03:04:06;;;;;;;6.70;4.83;;;6.70;99.90;;;;;;6075213;23;20378;-70
2023/04/02 03:06:32;;;;;;;8.43;6.40;;;6.70;99.90;;;;;;6075562;23;20846;-70
2023/04/02 03:09:14;;;;;;;7.70;4.83;;;6.70;99.90;;;;;;6052597;23;20208;-69
2023/04/02 03:11:56;;;;;;;5.60;4.13;;;6.70;99.90;;;;;;6086047;23;20397;-70
2023/04/02 03:14:41;;;;;;;5.17;3.67;;;6.60;99.90;;;;;;6086461;23;20365;-69
2023/04/02 03:17:17;;;;;;;3.67;3.37;;;6.60;99.90;;;;;;6074035;23;21014;-72
2023/04/02 03:20:10;;;;;;;5.10;4.23;;;6.60;99.90;;;;;;6075667;23;20401;-71
2023/04/02 03:23:02;;;;;;;5.67;4.27;;;6.60;99.90;;;;;;6052039;23;20413;-70
2023/04/02 03:25:46;;;;;;;6.43;5.77;;;6.50;99.90;;;;;;6053457;23;20401;-72
2023/04/02 03:28:17;;;;;;;5.03;4.20;;;6.60;99.90;;;;;;6088395;23;20374;-72
2023/04/02 03:31:04;;;;;;;5.87;4.70;;;6.50;99.90;;;;;;6078202;23;20444;-68
2023/04/02 03:33:39;;;;;;;5.10;4.57;;;6.50;99.90;;;;;;6052625;23;20454;-69
2023/04/02 03:36:27;;;;;;;5.53;4.50;;;6.50;99.90;;;;;;6058853;23;20504;-70
2023/04/02 03:39:11;;;;;;;7.17;5.00;;;6.50;99.90;;;;;;6082217;23;20409;-69
2023/04/02 03:41:55;;;;;;;5.37;4.50;;;6.50;99.90;;;;;;6086228;23;20409;-70
2023/04/02 03:44:31;;;;;;;7.37;5.53;;;6.40;99.90;;;;;;6085673;23;20392;-70
2023/04/02 03:47:04;;;;;;;4.30;3.70;;;6.40;99.90;;;;;;6083632;23;20396;-69
2023/04/02 03:49:45;;;;;;;6.13;5.53;;;6.30;99.90;;;;;;6082668;23;20392;-73
2023/04/02 03:52:16;;;;;;;7.97;6.10;;;6.40;99.90;;;;;;6100843;23;20420;-70
2023/04/02 03:54:43;;;;;;;6.70;6.10;;;6.30;99.90;;;;;;6084273;23;20400;-69
2023/04/02 03:57:32;;;;;;;6.60;5.50;;;6.40;99.90;;;;;;6050294;23;20771;-69
2023/04/02 04:00:33;;;;;;;8.30;6.47;;;6.40;99.90;;;;;;6075314;23;20381;-69
2023/04/02 04:03:10;;;;;;;6.60;5.70;;;6.40;99.90;;;;;;6042684;23;20491;-69
2023/04/02 04:05:45;;;;;;;8.63;7.43;;;6.40;99.90;;;;;;6084007;23;20408;-72
2023/04/02 04:08:19;;;;;;;11.97;7.53;;;6.50;99.90;;;;;;6118970;23;20382;-70
2023/04/02 04:10:49;;;;;;;8.63;7.03;;;6.50;99.90;;;;;;6119974;23;20372;-70
2023/04/02 04:13:21;;;;;;;6.30;5.43;;;6.40;99.90;;;;;;6082632;23;20467;-71
2023/04/02 04:15:52;;;;;;;8.83;7.67;;;6.40;99.90;;;;;;6033785;23;20424;-68
2023/04/02 04:18:33;;;;;;;8.00;7.00;;;6.40;99.90;;;;;;6115105;23;20444;-68
2023/04/02 04:21:15;;;;;;;6.70;6.00;;;6.30;99.90;;;;;;6081074;23;20389;-70
2023/04/02 04:23:48;;;;;;;6.83;6.10;;;6.40;99.90;;;;;;6080349;23;20524;-68
2023/04/02 04:26:20;;;;;;;6.73;6.00;;;6.40;99.90;;;;;;6080514;23;20396;-70
2023/04/02 04:29:20;;;;;;;7.10;6.40;;;6.40;99.90;;;;;;6081430;23;20381;-69
2023/04/02 04:31:48;;;;;;;5.97;5.37;;;6.40;99.90;;;;;;6070972;23;20479;-68
2023/04/02 04:34:45;;;;;;;5.50;4.87;;;6.40;99.90;;;;;;6081153;23;20373;-70
2023/04/02 04:37:34;;;;;;;6.70;4.90;;;6.50;99.90;;;;;;6081872;23;20464;-71
2023/04/02 04:40:06;;;;;;;6.10;5.50;;;6.40;99.90;;;;;;6086069;23;20396;-69
2023/04/02 04:42:36;;;;;;;5.13;4.63;;;6.40;99.90;;;;;;6057363;23;20408;-68
2023/04/02 04:45:13;;;;;;;6.83;5.83;;;6.30;99.90;;;;;;6083321;23;20388;-69
2023/04/02 04:47:50;;;;;;;6.23;5.57;;;6.20;99.90;;;;;;6082443;23;20387;-70
2023/04/02 04:50:36;;;;;;;6.80;6.10;;;6.20;99.90;;;;;;6083490;23;20392;-70
2023/04/02 04:53:18;;;;;;;6.23;5.63;;;6.20;99.90;;;;;;6107709;23;20425;-69
2023/04/02 04:55:48;;;;;;;5.90;5.30;;;6.10;99.90;;;;;;6083026;23;20511;-68
2023/04/02 04:58:25;;;;;;;6.60;5.90;;;6.10;99.90;;;;;;6083084;23;20381;-71
2023/04/02 05:01:13;;;;;;;5.93;5.33;;;6.00;99.90;;;;;;6091266;23;20368;-70
2023/04/02 05:04:18;;;;;;;6.40;4.83;;;6.00;99.90;;;;;;6116683;23;20361;-70
2023/04/02 05:06:54;;;;;;;7.43;6.70;;;6.10;99.90;;;;;;6081830;23;20403;-68
2023/04/02 05:09:50;;;;;;;6.23;5.40;;;6.10;99.90;;;;;;6082005;23;20384;-70
2023/04/02 05:13:00;;;;;;;7.90;5.50;;;6.10;99.90;;;;;;6081597;23;20405;-70
2023/04/02 05:15:36;;;;;;;5.60;5.13;;;6.10;99.90;;;;;;6069188;23;20444;-69
2023/04/02 05:18:16;;;;;;;5.60;5.00;;;6.00;99.90;;;;;;6080728;23;20387;-71
2023/04/02 05:21:16;;;;;;;7.70;6.13;;;6.10;99.90;;;;;;6082074;23;20380;-71
2023/04/02 05:24:16;;;;;;;6.10;5.30;;;6.10;99.90;;;;;;6084073;23;20389;-70
2023/04/02 05:26:46;;;;;;;6.03;5.43;;;6.10;99.90;;;;;;6106227;23;20848;-69
2023/04/02 05:29:42;;;;;;;5.73;4.40;;;6.10;99.90;;;;;;6083172;23;20391;-72
2023/04/02 05:32:30;;;;;;;6.03;5.40;;;6.10;99.90;;;;;;6105114;23;20416;-71
2023/04/02 05:34:57;;;;;;;7.43;6.10;;;6.00;99.90;;;;;;6063001;23;20395;-70
2023/04/02 05:37:26;;;;;;;6.00;5.20;;;6.20;99.90;;;;;;6111322;23;20452;-70
2023/04/02 05:40:02;;;;;;;6.40;5.80;;;6.20;99.90;;;;;;6085867;23;20444;-71
2023/04/02 05:42:35;;;;;;;6.03;5.43;;;6.10;99.90;;;;;;6062436;23;20400;-69
2023/04/02 05:45:25;;;;;;;5.73;5.03;;;6.20;99.90;;;;;;6082280;23;20388;-69
2023/04/02 05:47:58;;;;;;;6.60;5.67;;;6.00;99.90;;;;;;6083455;23;20403;-71
2023/04/02 05:50:35;;;;;;;5.97;4.97;;;6.10;99.90;;;;;;6087595;23;20377;-71
2023/04/02 05:53:19;;;;;;;6.97;6.30;;;6.10;99.90;;;;;;6084626;23;20439;-70
2023/04/02 05:56:14;;;;;;;7.90;6.70;;;6.10;99.90;;;;;;6084574;23;20420;-70
2023/04/02 05:58:46;;;;;;;6.60;6.00;;;6.10;99.90;;;;;;6120300;23;20361;-69
2023/04/02 06:01:45;;;;;;;6.37;5.10;;;6.20;99.90;;;;;;6085681;23;20483;-71
2023/04/02 06:04:46;;;;;;;5.70;5.20;;;5.90;99.90;;;;;;6090452;23;20388;-71
2023/04/02 06:07:22;;;;;;;6.87;4.90;;;6.20;99.90;;;;;;6089109;23;20448;-71
2023/04/02 06:09:54;;;;;;;5.93;5.33;;;6.20;99.90;;;;;;6062701;23;20384;-69
2023/04/02 06:12:30;;;;;;;6.10;5.50;;;6.30;99.90;;;;;;6083579;23;20424;-70
2023/04/02 06:14:57;;;;;;;6.17;5.57;;;6.30;99.90;;;;;;6083203;23;20464;-69
2023/04/02 06:17:26;;;;;;;5.60;5.10;;;6.50;99.90;;;;;;6082594;23;20519;-70
2023/04/02 06:19:54;;;;;;;5.43;4.93;;;6.40;99.90;;;;;;6118543;23;20375;-70
2023/04/02 06:22:31;;;;;;;5.43;4.70;;;6.50;99.90;;;;;;6118153;23;20437;-69
2023/04/02 06:25:03;;;;;;;5.10;4.50;;;6.50;99.90;;;;;;6084002;23;20387;-70
2023/04/02 06:27:37;;;;;;;5.40;4.90;;;6.60;99.90;;;;;;6082178;23;20472;-70
2023/04/02 06:30:13;;;;;;;5.33;4.83;;;6.60;99.90;;;;;;6084623;23;20395;-70
2023/04/02 06:32:40;;;;;;;5.90;5.00;;;6.60;99.90;;;;;;6110442;23;20415;-71
2023/04/02 06:35:12;;;;;;;5.47;4.93;;;6.50;99.90;;;;;;6111464;23;20433;-70
2023/04/02 06:37:44;;;;;;;5.20;4.70;;;6.50;99.90;;;;;;6063281;23;20460;-69
2023/04/02 06:40:39;;;;;;;7.03;5.37;;;6.60;99.90;;;;;;6085595;23;20456;-70
2023/04/02 06:43:25;;;;;;;6.13;5.10;;;6.50;99.90;;;;;;6088291;23;20436;-69
2023/04/02 06:46:42;;;;;;;5.83;5.23;;;6.50;99.90;;;;;;6100613;23;20376;-72
2023/04/02 06:49:17;;;;;;;7.30;6.10;;;6.60;99.90;;;;;;5968459;24;20829;-72
2023/04/02 06:51:45;;;;;;;7.30;6.50;;;6.70;99.90;;;;;;5972436;24;20518;-69
2023/04/02 06:54:14;;;;;;;8.57;6.23;;;6.70;99.90;;;;;;5947539;24;20388;-70
2023/04/02 06:56:55;;;;;;;7.10;5.93;;;6.80;99.90;;;;;;5949065;24;20431;-70
2023/04/02 06:59:41;;;;;;;7.97;6.90;;;6.80;99.90;;;;;;6003889;24;20428;-72
2023/04/02 07:02:34;;;;;;;9.60;6.00;;;6.80;99.90;;;;;;5993452;24;20420;-69
2023/04/02 07:05:07;;;;;;;7.10;6.03;;;6.70;99.90;;;;;;6005789;24;20368;-72
2023/04/02 07:07:34;;;;;;;8.50;5.53;;;6.70;99.90;;;;;;5995425;24;20395;-71
2023/04/02 07:10:03;;;;;;;8.70;6.23;;;6.70;99.90;;;;;;5994554;24;20493;-70
2023/04/02 07:12:29;;;;;;;9.30;6.13;;;6.60;99.90;;;;;;5973934;24;20480;-70
2023/04/02 07:14:55;;;;;;;7.93;6.40;;;6.60;99.90;;;;;;5993166;24;20395;-69
2023/04/02 07:17:22;;;;;;;8.37;6.67;;;6.60;99.90;;;;;;6000455;24;20190;-73
2023/04/02 07:19:48;;;;;;;9.80;7.17;;;6.50;99.90;;;;;;5984283;24;20380;-70
2023/04/02 07:22:19;;;;;;;8.80;6.13;;;6.50;99.90;;;;;;6013153;23;20476;-71
2023/04/02 07:24:50;;;;;;;7.10;5.93;;;6.50;99.90;;;;;;6082861;23;20392;-73
2023/04/02 07:27:16;;;;;;;10.03;6.67;;;6.60;99.90;;;;;;6084346;23;20380;-71
2023/04/02 07:29:41;;;;;;;10.50;6.47;;;6.50;99.90;;;;;;6119947;23;20140;-70
2023/04/02 07:32:09;;;;;;;7.73;5.60;;;6.50;99.90;;;;;;6082314;23;20180;-69
2023/04/02 07:34:35;;;;;;;7.13;5.50;;;6.50;99.90;;;;;;6091949;23;20228;-71
2023/04/02 07:37:01;;;;;;;9.83;5.70;;;6.50;99.90;;;;;;6084359;23;20408;-69
2023/04/02 07:39:27;;;;;;;7.83;6.40;;;6.60;99.90;;;;;;6120228;23;20180;-71
2023/04/02 07:41:58;;;;;;;6.47;5.80;;;6.60;99.90;;;;;;6071600;23;20404;-69
2023/04/02 07:44:23;;;;;;;10.60;5.80;;;6.70;99.90;;;;;;6122632;23;20432;-72
2023/04/02 07:46:49;;;;;;;5.30;4.80;;;6.70;99.90;;;;;;6092822;23;20459;-71
2023/04/02 07:49:16;;;;;;;9.97;6.63;;;6.60;99.90;;;;;;6119560;23;20140;-71
2023/04/02 07:51:41;;;;;;;6.23;5.63;;;6.60;99.90;;;;;;6084328;23;20446;-69
2023/04/02 07:54:09;;;;;;;7.63;5.57;;;6.60;99.90;;;;;;6122478;23;20144;-72
2023/04/02 07:56:35;;;;;;;9.30;6.17;;;6.50;99.90;;;;;;6120222;23;20169;-71
2023/04/02 07:59:02;;;;;;;6.67;5.97;;;6.50;99.90;;;;;;6123352;23;20368;-71
2023/04/02 08:01:33;;;;;;;6.03;4.93;;;6.40;99.90;;;;;;6121786;23;20401;-70
2023/04/02 08:04:00;;;;;;;8.13;6.17;;;6.40;99.90;;;;;;6085205;23;20835;-72
2023/04/02 08:06:30;;;;;;;8.23;5.60;;;6.50;99.90;;;;;;6085983;23;20541;-71
2023/04/02 08:08:57;;;;;;;7.63;4.80;;;6.50;99.90;;;;;;6085758;23;20384;-71
2023/04/02 08:11:23;;;;;;;7.40;5.63;;;6.50;99.90;;;;;;6085879;23;20456;-74
2023/04/02 08:13:49;;;;;;;8.53;5.50;;;6.70;99.90;;;;;;6096521;23;20456;-71
2023/04/02 08:16:15;;;;;;;8.87;6.70;;;6.80;99.90;;;;;;6120941;23;20176;-71
2023/04/02 08:18:41;;;;;;;7.07;5.93;;;6.80;99.90;;;;;;6086313;23;20149;-70
2023/04/02 08:21:09;;;;;;;10.37;6.50;;;6.90;99.90;;;;;;6094635;23;20508;-70
2023/04/02 08:23:35;;;;;;;8.10;6.13;;;7.00;99.90;;;;;;6120736;23;20499;-70
2023/04/02 08:26:02;;;;;;;7.53;5.80;;;7.00;99.90;;;;;;6097008;23;20400;-68
2023/04/02 08:28:28;;;;;;;7.83;5.83;;;7.00;99.90;;;;;;6095566;23;20540;-71
2023/04/02 08:30:54;;;;;;;7.50;4.77;;;7.00;99.90;;;;;;6120243;23;20384;-71
2023/04/02 08:33:21;;;;;;;12.80;6.47;;;7.00;99.90;;;;;;6087868;23;20149;-71
2023/04/02 08:35:48;;;;;;;8.27;6.20;;;7.00;99.90;;;;;;6120916;23;20404;-70
2023/04/02 08:38:15;;;;;;;7.57;6.33;;;7.20;99.90;;;;;;6086837;23;20140;-72
2023/04/02 08:40:53;;;;;;;7.87;6.03;;;7.10;99.90;;;;;;6098623;23;20380;-71
2023/04/02 08:43:39;;;;;;;6.93;6.00;;;7.10;99.90;;;;;;6121455;23;20368;-72
2023/04/02 08:46:24;;;;;;;9.73;6.57;;;7.10;99.90;;;;;;6122065;23;20452;-71
2023/04/02 08:48:54;;;;;;;9.73;6.87;;;7.10;99.90;;;;;;6087731;23;20440;-69
2023/04/02 08:51:26;;;;;;;9.67;6.90;;;7.10;99.90;;;;;;6092131;23;20464;-72
2023/04/02 08:53:59;;;;;;;9.80;6.93;;;7.00;99.90;;;;;;6124398;23;20488;-73
2023/04/02 08:56:41;;;;;;;10.80;5.67;;;7.00;99.90;;;;;;6089131;23;20427;-72
2023/04/02 08:59:32;;;;;;;9.10;6.33;;;7.00;99.90;;;;;;6089137;23;20392;-69
2023/04/02 09:02:16;;;;;;;11.50;7.00;;;7.00;99.90;;;;;;6102720;23;20425;-72
2023/04/02 09:04:44;;;;;;;10.60;7.40;;;6.90;99.90;;;;;;6124599;23;20365;-70
2023/04/02 09:07:16;;;;;;;11.70;7.40;;;7.00;99.90;;;;;;6124191;23;20361;-72
2023/04/02 09:09:45;;;;;;;9.63;6.83;;;6.90;99.90;;;;;;6090202;23;20412;-70
2023/04/02 09:12:28;;;;;;;10.40;6.80;;;7.00;99.90;;;;;;6099027;23;20400;-70
2023/04/02 09:15:06;;;;;;;9.33;6.10;;;7.00;99.90;;;;;;6125322;23;20408;-72
2023/04/02 09:17:31;;;;;;;9.47;6.30;;;6.90;99.90;;;;;;6118246;23;20435;-75
2023/04/02 09:20:07;;;;;;;7.80;6.50;;;6.90;99.90;;;;;;6124096;23;20380;-71
2023/04/02 09:22:33;;;;;;;10.70;7.43;;;6.90;99.90;;;;;;6121898;23;20167;-71
2023/04/02 09:25:03;;;;;;;11.60;6.77;;;6.90;99.90;;;;;;6120316;23;20405;-72
2023/04/02 09:27:34;;;;;;;7.93;5.70;;;6.90;99.90;;;;;;6120189;23;20380;-70
2023/04/02 09:30:09;;;;;;;6.50;4.93;;;7.00;99.90;;;;;;6095529;23;20379;-71
2023/04/02 09:32:44;;;;;;;8.90;6.13;;;7.00;99.90;;;;;;6123446;23;20402;-71
2023/04/02 09:35:14;;;;;;;6.63;5.37;;;7.20;99.90;;;;;;6121064;23;20379;-70
2023/04/02 09:37:42;;;;;;;7.37;5.67;;;7.30;99.90;;;;;;6096802;23;20655;-71
2023/04/02 09:40:27;;;;;;;6.93;6.20;;;7.40;99.90;;;;;;6121524;23;20373;-69
2023/04/02 09:43:11;;;;;;;8.50;5.70;;;7.50;99.90;;;;;;6085021;23;20498;-71
2023/04/02 09:45:37;;;;;;;8.80;6.03;;;7.60;99.90;;;;;;6066612;23;20420;-73
2023/04/02 09:48:42;;;;;;;10.77;6.33;;;7.70;99.90;;;;;;6090757;23;20401;-72
2023/04/02 09:51:16;;;;;;;7.23;5.10;;;7.80;99.90;;;;;;6064403;23;20157;-71
2023/04/02 09:53:47;;;;;;;8.73;5.43;;;7.80;99.90;;;;;;6125089;23;20432;-73
2023/04/02 09:56:25;;;;;;;9.97;5.67;;;7.80;99.90;;;;;;6115034;23;20420;-73
2023/04/02 09:59:30;;;;;;;7.43;5.40;;;7.90;99.90;;;;;;6122259;23;20377;-72
2023/04/02 10:02:04;;;;;;;7.63;5.60;;;8.10;99.90;;;;;;5996991;24;20399;-71
2023/04/02 10:04:43;;;;;;;8.80;6.37;;;8.00;99.90;;;;;;5983428;24;20475;-71
2023/04/02 10:07:43;;;;;;;6.70;5.87;;;7.90;99.90;;;;;;6005923;24;20383;-71
2023/04/02 10:10:28;;;;;;;7.90;5.73;;;7.90;99.90;;;;;;5981888;24;20407;-71
2023/04/02 10:13:06;;;;;;;11.20;6.83;;;7.80;99.90;;;;;;6006121;24;20420;-72
2023/04/02 10:15:56;;;;;;;8.50;6.77;;;7.70;99.90;;;;;;6004976;24;20412;-71
2023/04/02 10:18:45;;;;;;;8.87;6.57;;;7.60;99.90;;;;;;5997300;24;20388;-74
2023/04/02 10:21:16;;;;;;;8.17;6.07;;;7.70;99.90;;;;;;6004107;24;20417;-71
2023/04/02 10:23:41;;;;;;;8.40;6.60;;;7.90;99.90;;;;;;5971949;24;20467;-72
2023/04/02 10:26:44;;;;;;;6.90;5.40;;;8.00;99.90;;;;;;5994160;24;20392;-71
2023/04/02 10:29:45;;;;;;;8.50;6.50;;;8.10;99.90;;;;;;5974555;24;20155;-72
2023/04/02 10:32:49;;;;;;;8.90;6.80;;;8.30;99.60;;;;;;5961867;24;20601;-73
2023/04/02 10:35:20;;;;;;;8.13;6.07;;;8.40;98.30;;;;;;5988594;24;20384;-71
2023/04/02 10:37:46;;;;;;;9.50;6.53;;;8.50;97.20;;;;;;5982184;24;20376;-72
2023/04/02 10:40:25;;;;;;;6.87;5.40;;;8.50;96.00;;;;;;6119123;23;20381;-72
2023/04/02 10:43:29;;;;;;;9.70;7.13;;;8.50;96.00;;;;;;6123379;23;20164;-72
2023/04/02 10:46:19;;;;;;;6.80;5.97;;;8.70;96.50;;;;;;6122976;23;20453;-72
2023/04/02 10:49:09;;;;;;;6.30;5.10;;;8.80;96.00;;;;;;6124103;23;20373;-71
2023/04/02 10:51:46;;;;;;;6.47;5.50;;;8.90;95.00;;;;;;6120983;23;20408;-73
2023/04/02 10:54:20;;;;;;;8.70;5.83;;;9.10;95.60;;;;;;6122191;23;20459;-71
2023/04/02 10:56:48;;;;;;;7.93;5.90;;;9.30;92.50;;;;;;6126874;23;20412;-72
2023/04/02 10:59:23;;;;;;;9.97;6.20;;;9.50;90.70;;;;;;6101046;23;20440;-72
2023/04/02 11:01:58;;;;;;;8.40;5.50;;;9.50;89.90;;;;;;6065398;23;20411;-73
2023/04/02 11:04:31;;;;;;;7.07;5.33;;;9.40;90.20;;;;;;6088185;23;20382;-72
2023/04/02 11:07:04;;;;;;;6.80;5.57;;;9.40;91.30;;;;;;6088273;23;20404;-72
2023/04/02 11:09:36;;;;;;;7.53;5.33;;;9.50;91.00;;;;;;6127925;23;20376;-72
2023/04/02 11:12:20;;;;;;;6.80;5.60;;;9.50;90.10;;;;;;6127740;23;20416;-73
2023/04/02 11:14:48;;;;;;;9.47;5.37;;;9.40;86.00;;;;;;6067202;23;20407;-73
2023/04/02 11:17:18;;;;;;;7.33;5.13;;;9.30;90.20;;;;;;6068448;23;20443;-73
2023/04/02 11:19:44;;;;;;;6.50;5.30;;;9.30;91.60;;;;;;6069341;23;20384;-72
2023/04/02 11:22:22;;;;;;;7.20;5.43;;;9.30;92.10;;;;;;6065708;23;20838;-73
2023/04/02 11:24:50;;;;;;;7.17;5.80;;;9.30;90.60;;;;;;6092058;23;20389;-73
2023/04/02 11:27:29;;;;;;;6.20;4.80;;;9.30;90.90;;;;;;6124401;23;20432;-72
2023/04/02 11:30:19;;;;;;;7.07;5.30;;;9.20;91.60;;;;;;6091603;23;20372;-73
2023/04/02 11:32:48;;;;;;;6.90;4.60;;;9.30;91.80;;;;;;6126714;23;20396;-73
2023/04/02 11:35:25;;;;;;;7.27;5.40;;;9.20;92.30;;;;;;6066105;23;20376;-71
2023/04/02 11:37:55;;;;;;;7.20;5.30;;;9.40;88.60;;;;;;6127269;23;20364;-72
2023/04/02 11:40:43;;;;;;;5.53;4.60;;;9.40;88.60;;;;;;6094095;23;20372;-72
2023/04/02 11:43:34;;;;;;;6.67;5.90;;;9.30;90.50;;;;;;6126585;23;20468;-74
2023/04/02 11:46:03;;;;;;;7.07;4.60;;;9.30;89.90;;;;;;6103606;23;20372;-75
2023/04/02 11:48:34;;;;;;;10.33;6.17;;;9.30;90.30;;;;;;6066416;23;20411;-73
2023/04/02 11:51:14;;;;;;;5.80;5.13;;;9.30;89.90;;;;;;6125512;23;20368;-71
2023/04/02 11:53:41;;;;;;;6.83;5.60;;;9.30;88.90;;;;;;6069099;23;20427;-72
2023/04/02 11:56:07;;;;;;;8.73;5.70;;;9.20;89.10;;;;;;6104773;23;20409;-72
2023/04/02 11:59:05;;;;;;;5.40;4.90;;;9.10;88.90;;;;;;6129928;23;20399;-73
2023/04/02 12:01:58;;;;;;;9.30;5.80;;;9.00;90.40;;;;;;6129491;23;20215;-73
2023/04/02 12:04:48;;;;;;;7.50;5.93;;;8.90;91.50;;;;;;6127894;23;20375;-72
2023/04/02 12:07:33;;;;;;;5.87;5.27;;;9.00;91.60;;;;;;6091747;23;20396;-73
2023/04/02 12:10:20;;;;;;;6.53;5.37;;;9.10;90.30;;;;;;6091437;23;20643;-73
2023/04/02 12:12:49;;;;;;;8.23;6.27;;;9.20;89.10;;;;;;6091319;23;20416;-73
2023/04/02 12:15:45;;;;;;;6.07;4.83;;;9.20;88.30;;;;;;6071443;23;20377;-73
2023/04/02 12:18:28;;;;;;;10.03;5.53;;;9.40;85.70;;;;;;6064268;23;20408;-73
2023/04/02 12:20:55;;;;;;;9.40;5.77;;;9.50;87.30;;;;;;6063685;23;20389;-72
2023/04/02 12:23:32;;;;;;;8.80;6.07;;;9.60;84.90;;;;;;6062252;23;20453;-73
2023/04/02 12:26:05;;;;;;;6.00;4.93;;;9.70;84.90;;;;;;6037126;23;20374;-74
2023/04/02 12:28:36;;;;;;;6.30;5.30;;;9.80;80.50;;;;;;6097077;23;20531;-72
2023/04/02 12:31:13;;;;;;;6.90;5.40;;;9.80;80.20;;;;;;6062403;23;20396;-73
2023/04/02 12:33:40;;;;;;;7.10;4.83;;;9.80;79.60;;;;;;6038362;23;20413;-73
2023/04/02 12:36:13;;;;;;;6.30;5.70;;;9.60;85.10;;;;;;6058933;23;20421;-72
2023/04/02 12:38:47;;;;;;;5.90;4.93;;;9.60;84.40;;;;;;6059594;23;20753;-72
2023/04/02 12:41:29;;;;;;;6.90;4.77;;;9.80;82.20;;;;;;6094515;23;20378;-73
2023/04/02 12:44:17;;;;;;;7.00;5.70;;;9.70;80.90;;;;;;6060475;23;20506;-74
2023/04/02 12:46:44;;;;;;;7.77;6.77;;;9.70;81.40;;;;;;6057393;23;20400;-74
2023/04/02 12:49:45;;;;;;;8.30;5.60;;;9.70;79.10;;;;;;6068422;23;20380;-72
2023/04/02 12:52:15;;;;;;;6.17;5.57;;;9.60;81.20;;;;;;6065698;23;20769;-72
2023/04/02 12:55:03;;;;;;;9.43;5.77;;;9.50;81.00;;;;;;6065686;23;20393;-72
2023/04/02 12:57:29;;;;;;;6.97;5.00;;;9.50;78.70;;;;;;6066397;23;20900;-73
2023/04/02 12:59:56;;;;;;;6.60;5.77;;;9.40;82.70;;;;;;6103400;23;20373;-72
2023/04/02 13:02:31;;;;;;;6.57;5.13;;;9.40;82.90;;;;;;6101150;23;20231;-72
2023/04/02 13:05:02;;;;;;;7.07;5.20;;;9.50;83.00;;;;;;6091571;23;20408;-72
2023/04/02 13:07:31;;;;;;;7.10;5.40;;;9.60;80.20;;;;;;6125456;23;20373;-72
2023/04/02 13:09:59;;;;;;;7.27;5.40;;;9.70;79.10;;;;;;6064516;23;20391;-71
2023/04/02 13:12:36;;;;;;;6.40;4.80;;;9.80;76.10;;;;;;6065923;23;20409;-72
2023/04/02 13:15:21;;;;;;;7.93;4.37;;;9.70;74.80;;;;;;6065190;23;20410;-72
2023/04/02 13:18:04;;;;;;;5.00;4.50;;;9.80;76.10;;;;;;6056250;23;20939;-72
2023/04/02 13:20:35;;;;;;;7.10;4.83;;;9.80;76.10;;;;;;6055055;23;20446;-72
2023/04/02 13:23:27;;;;;;;10.20;5.40;;;9.80;75.40;;;;;;6043160;23;20406;-72
2023/04/02 13:26:18;;;;;;;6.20;3.97;;;9.80;75.80;;;;;;6002718;23;20832;-73
2023/04/02 13:29:19;;;;;;;5.97;5.13;;;9.70;75.60;;;;;;6052060;23;20565;-71
2023/04/02 13:31:45;;;;;;;6.37;4.90;;;9.70;77.10;;;;;;6003381;23;20413;-72
2023/04/02 13:34:11;;;;;;;7.37;5.10;;;9.60;74.70;;;;;;6033462;23;20379;-72
2023/04/02 13:36:37;;;;;;;5.33;4.77;;;9.50;77.00;;;;;;6058637;23;20170;-71
2023/04/02 13:39:03;;;;;;;7.40;5.07;;;9.50;77.60;;;;;;6059742;23;20393;-71
2023/04/02 13:41:44;;;;;;;7.13;4.47;;;9.50;77.20;;;;;;6035226;23;20181;-71
2023/04/02 13:44:31;;;;;;;7.23;3.70;;;9.50;76.30;;;;;;6094298;23;20376;-73
2023/04/02 13:47:00;;;;;;;7.83;5.53;;;9.50;77.40;;;;;;6126050;23;20384;-74